Hauptseite
METAR-TAF:

METAR-TAF

Flughäfen :

Flugplatz Vöslau-Kottingbrunn

Bad Vöslau, Österreich

Breite: 47-57-52N, Länge: 016-15-34E, Höhe: 233 m

Beobachtung

Neuester Wetterbericht von vor 42 Minuten, um 07:00 UTC
Wind 4 kt aus Ost
Temperatur 22°C
Luftfeuchtigkeit 53%
Luftdruck
Himmel klar

METAR: LOAV 170700Z 10004KT 40KM SKC 22/12

Zeit: 09:42 (07:42 UTC)

Prognose

Neuester Wetterbericht von vor 42 Minuten, um 07:00 UTC
Gültige Prognose vom 17 um 07 UTC bis 17 um 15 UTC
Wind 5 kt aus Ost
Sichtweite 10 km oder mehr
Himmel klar
Zeitweise
vom 17 um 09 UTC bis 17 um 15 UTC
Wind 7 kt aus Südost
Leicht bewölkt in der Höhe von 6000 ft

TAF: LOAV 170700Z 1707/1715 10005KT 9999 SKC TEMPO 1709/1715 13007KT FEW060

Wetterbeobachtungen und Prognosen von mehr als 4000 Flughäfen (METAR und TAF Bericht).

Die verfügbaren Stationen werden durch gelbe und rote Markierungen auf der Karte dargestellt.

Führen Sie die Maus auf sie, um den Namen der Station zu sehen.

Darauf klicken, um die Beobachtung von Wetterbeobachtungen und Prognosen zu sehen.

Um die Karte zu ändern : klicken Sie auf den grünen Tasten mit einem schwarzen Kreuz Zum Vergrößern, auf den grünen Button mit einem Gedankenstrich zu verkleinern, oder auf die grünen Pfeile für benachbarte Karten.


METAR-TAF: